createdAt,value
2023-04-22T00:00:03.657Z,16.20
2023-04-22T00:03:43.522Z,13.00
2023-04-22T00:07:05.182Z,13.30
2023-04-22T00:10:53.879Z,13.40
2023-04-22T00:14:57.665Z,9.90
2023-04-22T00:18:51.378Z,12.50
2023-04-22T00:22:42.458Z,14.10
2023-04-22T00:26:36.832Z,14.90
2023-04-22T00:30:22.862Z,12.20
2023-04-22T00:34:19.755Z,14.30
2023-04-22T00:38:12.132Z,11.90
2023-04-22T00:42:02.429Z,12.10
2023-04-22T00:45:59.973Z,12.20
2023-04-22T00:50:02.024Z,15.40
2023-04-22T00:53:50.735Z,19.20
2023-04-22T00:57:43.841Z,12.50
2023-04-22T01:01:38.419Z,17.10
2023-04-22T01:04:41.758Z,14.40
2023-04-22T01:07:24.535Z,11.60
2023-04-22T01:12:50.942Z,12.90
2023-04-22T01:15:34.247Z,13.10
2023-04-22T01:18:17.875Z,13.20
2023-04-22T01:21:02.470Z,11.40
2023-04-22T01:23:45.958Z,14.80
2023-04-22T01:26:29.304Z,14.50
2023-04-22T01:29:12.173Z,14.10
2023-04-22T01:31:56.207Z,14.20
2023-04-22T01:34:39.189Z,12.40
2023-04-22T01:37:22.588Z,16.50
2023-04-22T01:40:06.416Z,17.50
2023-04-22T01:42:49.376Z,15.70
2023-04-22T01:45:32.493Z,12.80
2023-04-22T01:48:15.398Z,15.30
2023-04-22T01:50:59.002Z,14.40
2023-04-22T01:53:41.845Z,13.40
2023-04-22T01:59:08.264Z,12.90
2023-04-22T02:01:52.266Z,11.40
2023-04-22T02:04:35.758Z,10.60
2023-04-22T02:07:18.592Z,13.00
2023-04-22T02:12:45.244Z,10.70
2023-04-22T02:15:30.634Z,15.40
2023-04-22T02:18:13.528Z,13.90
2023-04-22T02:20:58.169Z,16.60
2023-04-22T02:23:41.473Z,12.50
2023-04-22T02:26:26.064Z,13.60
2023-04-22T02:29:09.023Z,12.80
2023-04-22T02:31:51.965Z,15.20
2023-04-22T02:34:34.822Z,15.00
2023-04-22T02:40:01.840Z,13.00
2023-04-22T02:42:46.062Z,17.10
2023-04-22T02:45:29.076Z,13.20
2023-04-22T02:48:12.122Z,15.80
2023-04-22T02:50:55.153Z,12.90
2023-04-22T02:53:38.042Z,13.70
2023-04-22T02:56:21.612Z,17.30
2023-04-22T02:59:04.504Z,16.30
2023-04-22T03:01:47.408Z,16.40
2023-04-22T03:04:38.589Z,14.40
2023-04-22T03:07:21.732Z,16.60
2023-04-22T03:10:05.245Z,14.30
2023-04-22T03:12:49.056Z,14.50
2023-04-22T03:15:32.200Z,16.20
2023-04-22T03:18:15.749Z,18.50
2023-04-22T03:20:58.900Z,17.70
2023-04-22T03:26:24.660Z,20.30
2023-04-22T03:31:50.528Z,22.90
2023-04-22T03:34:35.825Z,19.70
2023-04-22T03:37:20.093Z,24.70
2023-04-22T03:40:05.765Z,23.10
2023-04-22T03:42:49.049Z,20.60
2023-04-22T03:45:34.537Z,22.80
2023-04-22T03:48:35.825Z,23.20
2023-04-22T03:51:22.485Z,25.00
2023-04-22T03:54:05.879Z,27.20
2023-04-22T03:56:50.233Z,25.90
2023-04-22T04:02:16.069Z,25.40
2023-04-22T04:04:59.408Z,20.60
2023-04-22T04:07:42.903Z,26.40
2023-04-22T04:10:26.231Z,21.80
2023-04-22T04:13:10.048Z,25.50
2023-04-22T04:16:01.244Z,27.30
2023-04-22T04:18:45.062Z,27.00
2023-04-22T04:21:29.460Z,24.70
2023-04-22T04:24:12.590Z,23.90
2023-04-22T04:26:59.970Z,22.50
2023-04-22T04:29:47.739Z,24.70
2023-04-22T04:32:35.902Z,25.50
2023-04-22T04:35:21.817Z,28.60
2023-04-22T04:38:07.890Z,30.20
2023-04-22T04:40:52.002Z,26.40
2023-04-22T04:43:40.833Z,25.50
2023-04-22T04:46:44.339Z,25.10
2023-04-22T04:49:30.764Z,24.10
2023-04-22T04:52:14.969Z,24.20
2023-04-22T04:54:57.845Z,22.20
2023-04-22T04:57:41.789Z,20.20
2023-04-22T05:00:27.488Z,23.70
2023-04-22T05:03:10.893Z,18.40
2023-04-22T05:05:54.620Z,21.50
2023-04-22T05:08:37.641Z,25.70
2023-04-22T05:11:24.053Z,20.70
2023-04-22T05:14:07.218Z,18.70
2023-04-22T05:16:53.160Z,19.60
2023-04-22T05:19:36.927Z,21.30
2023-04-22T05:22:20.709Z,18.60
2023-04-22T05:25:04.801Z,20.10
2023-04-22T05:27:47.771Z,22.00
2023-04-22T05:30:30.913Z,20.30
2023-04-22T05:33:15.958Z,18.20
2023-04-22T05:35:58.994Z,16.80
2023-04-22T05:38:41.941Z,17.60
2023-04-22T05:41:25.069Z,16.70
2023-04-22T05:44:08.403Z,21.40
2023-04-22T05:46:51.226Z,15.70
2023-04-22T05:49:34.634Z,13.80
2023-04-22T05:52:18.749Z,17.40
2023-04-22T05:55:24.632Z,17.30
2023-04-22T05:58:07.492Z,21.50
2023-04-22T06:00:59.182Z,19.40
2023-04-22T06:03:57.760Z,16.80
2023-04-22T06:06:41.615Z,25.40
2023-04-22T06:09:24.615Z,20.50
2023-04-22T06:12:08.143Z,15.30
2023-04-22T06:14:52.761Z,18.60
2023-04-22T06:17:35.741Z,15.30
2023-04-22T06:20:18.688Z,19.60
2023-04-22T06:23:02.384Z,17.20
2023-04-22T06:25:45.573Z,16.80
2023-04-22T06:28:28.937Z,18.50
2023-04-22T06:31:13.158Z,13.70
2023-04-22T06:33:56.564Z,16.30
2023-04-22T06:36:39.756Z,21.90
2023-04-22T06:39:22.784Z,16.40
2023-04-22T06:42:41.382Z,17.70
2023-04-22T06:45:43.882Z,15.00
2023-04-22T06:48:37.082Z,13.90
2023-04-22T06:51:33.400Z,21.20
2023-04-22T06:54:17.222Z,17.30
2023-04-22T06:57:00.397Z,18.10
2023-04-22T06:59:45.385Z,16.90
2023-04-22T07:02:29.848Z,17.90
2023-04-22T07:05:13.024Z,18.90
2023-04-22T07:07:56.540Z,21.10
2023-04-22T07:10:40.112Z,18.70
2023-04-22T07:13:58.625Z,21.50
2023-04-22T07:16:41.725Z,18.20
2023-04-22T07:19:24.960Z,17.50
2023-04-22T07:22:07.814Z,17.90
2023-04-22T07:24:51.005Z,21.90
2023-04-22T07:27:37.238Z,18.60
2023-04-22T07:30:20.335Z,18.10
2023-04-22T07:33:03.478Z,17.50
2023-04-22T07:35:47.789Z,17.00
2023-04-22T07:38:30.634Z,16.80
2023-04-22T07:41:13.913Z,16.20
2023-04-22T07:43:56.740Z,18.10
2023-04-22T07:46:39.763Z,22.90
2023-04-22T07:49:22.528Z,21.10
2023-04-22T07:52:05.483Z,20.30
2023-04-22T07:54:48.500Z,18.20
2023-04-22T07:57:32.943Z,16.70
2023-04-22T08:00:16.486Z,17.90
2023-04-22T08:02:59.397Z,22.60
2023-04-22T08:05:42.284Z,17.60
2023-04-22T08:08:26.148Z,20.90
2023-04-22T08:11:09.290Z,16.00
2023-04-22T08:13:52.297Z,20.90
2023-04-22T08:16:35.201Z,18.60
2023-04-22T08:19:19.314Z,19.70
2023-04-22T08:22:02.269Z,18.80
2023-04-22T08:24:45.504Z,16.70
2023-04-22T08:27:28.589Z,20.70
2023-04-22T08:30:12.062Z,15.30
2023-04-22T08:32:55.081Z,19.00
2023-04-22T08:35:38.726Z,16.90
2023-04-22T08:38:21.546Z,17.70
2023-04-22T08:41:06.073Z,23.30
2023-04-22T08:43:49.474Z,19.80
2023-04-22T08:46:32.820Z,16.50
2023-04-22T08:49:16.281Z,17.40
2023-04-22T08:51:59.233Z,15.20
2023-04-22T08:54:42.770Z,21.80
2023-04-22T08:57:26.929Z,18.60
2023-04-22T09:00:10.707Z,17.30
2023-04-22T09:02:53.646Z,15.70
2023-04-22T09:05:40.069Z,18.30
2023-04-22T09:08:22.909Z,16.30
2023-04-22T09:11:05.761Z,14.80
2023-04-22T09:13:48.490Z,14.90
2023-04-22T09:16:32.357Z,14.90
2023-04-22T09:19:15.855Z,25.10
2023-04-22T09:21:59.553Z,11.10
2023-04-22T09:24:45.181Z,12.60
2023-04-22T09:27:28.835Z,11.10
2023-04-22T09:30:14.818Z,9.40
2023-04-22T09:33:02.566Z,16.10
2023-04-22T09:35:45.544Z,12.50
2023-04-22T09:38:32.066Z,17.80
2023-04-22T09:41:15.378Z,12.30
2023-04-22T09:43:59.698Z,18.80
2023-04-22T09:46:44.176Z,7.60
2023-04-22T09:49:28.053Z,9.00
2023-04-22T09:52:11.511Z,9.00
2023-04-22T09:54:54.838Z,11.40
2023-04-22T09:57:39.491Z,10.80
2023-04-22T10:00:31.009Z,14.30
2023-04-22T10:03:14.775Z,17.90
2023-04-22T10:06:00.872Z,11.50
2023-04-22T10:08:44.782Z,14.60
2023-04-22T10:11:28.413Z,19.40
2023-04-22T10:14:13.998Z,13.20
2023-04-22T10:17:00.344Z,12.50
2023-04-22T10:19:47.148Z,8.10
2023-04-22T10:22:31.925Z,17.00
2023-04-22T10:25:35.158Z,10.90
2023-04-22T10:28:18.757Z,14.90
2023-04-22T10:31:06.764Z,11.40
2023-04-22T10:33:49.804Z,13.20
2023-04-22T10:36:33.600Z,11.70
2023-04-22T10:39:17.104Z,11.70
2023-04-22T10:42:03.514Z,11.70
2023-04-22T10:44:49.356Z,11.40
2023-04-22T10:47:37.770Z,7.70
2023-04-22T10:50:26.107Z,8.80
2023-04-22T10:53:37.925Z,8.50
2023-04-22T10:56:21.001Z,11.30
2023-04-22T10:59:17.076Z,11.40
2023-04-22T11:02:07.080Z,8.90
2023-04-22T11:04:54.553Z,11.70
2023-04-22T11:07:37.524Z,10.70
2023-04-22T11:10:54.118Z,12.50
2023-04-22T11:13:37.253Z,10.30
2023-04-22T11:16:22.901Z,15.80
2023-04-22T11:19:06.255Z,16.60
2023-04-22T11:21:51.178Z,13.20
2023-04-22T11:24:34.318Z,9.60
2023-04-22T11:27:26.140Z,15.20
2023-04-22T11:30:12.346Z,12.50
2023-04-22T11:32:58.864Z,11.20
2023-04-22T11:35:42.825Z,12.40
2023-04-22T11:38:25.676Z,10.70
2023-04-22T11:41:09.026Z,12.30
2023-04-22T11:43:52.737Z,10.90
2023-04-22T11:46:39.669Z,15.30
2023-04-22T11:49:22.653Z,11.00
2023-04-22T11:52:05.499Z,12.00
2023-04-22T11:54:48.416Z,12.30
2023-04-22T11:57:36.934Z,15.00
2023-04-22T12:00:20.241Z,12.50
2023-04-22T12:03:08.051Z,10.00
2023-04-22T12:06:02.057Z,13.50
2023-04-22T12:08:47.511Z,12.80
2023-04-22T12:11:30.366Z,10.00
2023-04-22T12:14:13.267Z,11.10
2023-04-22T12:16:56.296Z,8.20
2023-04-22T12:19:39.408Z,13.80
2023-04-22T12:22:27.431Z,16.40
2023-04-22T12:25:10.840Z,11.10
2023-04-22T12:27:53.605Z,11.20
2023-04-22T12:30:36.512Z,9.80
2023-04-22T12:33:19.397Z,14.40
2023-04-22T12:36:02.941Z,13.30
2023-04-22T12:38:47.902Z,10.40
2023-04-22T12:41:31.096Z,11.70
2023-04-22T12:44:14.219Z,12.70
2023-04-22T12:46:57.185Z,12.00
2023-04-22T12:49:40.495Z,12.20
2023-04-22T12:52:23.677Z,11.90
2023-04-22T12:55:08.047Z,17.10
2023-04-22T12:57:51.481Z,13.10
2023-04-22T13:00:34.796Z,12.30
2023-04-22T13:03:17.774Z,13.20
2023-04-22T13:06:01.122Z,17.00
2023-04-22T13:08:44.129Z,11.70
2023-04-22T13:11:27.050Z,10.20
2023-04-22T13:14:10.482Z,19.60
2023-04-22T13:16:53.391Z,10.90
2023-04-22T13:19:36.754Z,10.20
2023-04-22T13:22:19.640Z,10.90
2023-04-22T13:25:03.064Z,13.90
2023-04-22T13:27:46.200Z,13.90
2023-04-22T13:30:29.102Z,11.70
2023-04-22T13:33:12.291Z,9.90
2023-04-22T13:35:55.444Z,15.30
2023-04-22T13:38:38.268Z,12.60
2023-04-22T13:41:22.693Z,14.60
2023-04-22T13:44:06.099Z,10.70
2023-04-22T13:46:49.164Z,12.30
2023-04-22T13:49:32.156Z,11.00
2023-04-22T13:52:16.096Z,15.50
2023-04-22T13:54:59.353Z,15.50
2023-04-22T13:57:42.509Z,29.60
2023-04-22T14:00:25.845Z,15.40
2023-04-22T14:03:09.222Z,9.80
2023-04-22T14:05:53.120Z,10.10
2023-04-22T14:08:36.986Z,11.40
2023-04-22T14:11:20.314Z,12.00
2023-04-22T14:14:03.230Z,17.40
2023-04-22T14:16:47.715Z,26.50
2023-04-22T14:19:31.788Z,13.40
2023-04-22T14:22:14.626Z,27.00
2023-04-22T14:24:57.944Z,12.40
2023-04-22T14:27:41.183Z,10.50
2023-04-22T14:30:24.177Z,11.10
2023-04-22T14:33:07.815Z,10.70
2023-04-22T14:35:52.593Z,14.60
2023-04-22T14:38:35.513Z,17.60
2023-04-22T14:41:28.865Z,9.20
2023-04-22T14:44:12.066Z,12.00
2023-04-22T14:46:55.192Z,14.00
2023-04-22T14:49:38.486Z,13.90
2023-04-22T14:52:21.887Z,13.80
2023-04-22T14:55:15.564Z,13.00
2023-04-22T14:58:02.960Z,43.40
2023-04-22T15:00:46.735Z,13.00
2023-04-22T15:03:30.916Z,12.90
2023-04-22T15:06:14.404Z,14.60
2023-04-22T15:08:57.272Z,10.50
2023-04-22T15:11:40.367Z,15.30
2023-04-22T15:14:23.295Z,12.80
2023-04-22T15:17:06.486Z,13.90
2023-04-22T15:19:50.317Z,12.10
2023-04-22T15:22:33.634Z,12.00
2023-04-22T15:25:18.208Z,26.00
2023-04-22T15:28:01.381Z,13.50
2023-04-22T15:30:44.423Z,18.10
2023-04-22T15:33:27.450Z,16.90
2023-04-22T15:36:10.914Z,24.80
2023-04-22T15:38:58.658Z,14.30
2023-04-22T15:41:43.657Z,15.60
2023-04-22T15:44:28.079Z,21.90
2023-04-22T15:47:12.007Z,28.20
2023-04-22T15:49:56.923Z,19.20
2023-04-22T15:52:39.874Z,14.30
2023-04-22T15:55:23.235Z,10.30
2023-04-22T15:58:06.267Z,11.20
2023-04-22T16:00:49.449Z,12.80
2023-04-22T16:03:32.793Z,12.80
2023-04-22T16:06:16.836Z,20.30
2023-04-22T16:09:00.112Z,13.00
2023-04-22T16:11:43.503Z,15.00
2023-04-22T16:14:26.624Z,9.10
2023-04-22T16:17:09.749Z,10.20
2023-04-22T16:19:53.183Z,13.30
2023-04-22T16:22:37.221Z,9.30
2023-04-22T16:25:20.501Z,14.80
2023-04-22T16:28:03.722Z,17.20
2023-04-22T16:30:47.305Z,11.70
2023-04-22T16:33:32.777Z,11.20
2023-04-22T16:36:15.877Z,11.70
2023-04-22T16:38:59.201Z,12.10
2023-04-22T16:41:43.558Z,10.40
2023-04-22T16:44:26.529Z,8.60
2023-04-22T16:47:09.588Z,9.40
2023-04-22T16:49:53.029Z,12.10
2023-04-22T16:52:36.238Z,11.40
2023-04-22T16:55:19.349Z,11.00
2023-04-22T16:58:03.916Z,8.70
2023-04-22T17:00:47.714Z,12.10
2023-04-22T17:03:31.029Z,15.90
2023-04-22T17:06:14.111Z,13.70
2023-04-22T17:08:57.003Z,29.00
2023-04-22T17:11:39.933Z,21.80
2023-04-22T17:14:22.848Z,24.20
2023-04-22T17:17:05.795Z,29.00
2023-04-22T17:19:48.750Z,17.30
2023-04-22T17:22:32.094Z,24.90
2023-04-22T17:25:15.987Z,16.30
2023-04-22T17:27:59.290Z,25.40
2023-04-22T17:30:42.400Z,20.40
2023-04-22T17:33:26.729Z,21.00
2023-04-22T17:36:10.254Z,15.80
2023-04-22T17:38:53.132Z,17.10
2023-04-22T17:41:36.210Z,21.30
2023-04-22T17:44:19.231Z,26.60
2023-04-22T17:47:02.489Z,25.20
2023-04-22T17:49:46.565Z,27.80
2023-04-22T17:52:29.518Z,29.80
2023-04-22T17:55:12.378Z,27.30
2023-04-22T17:57:55.360Z,22.60
2023-04-22T18:00:38.791Z,26.30
2023-04-22T18:03:21.957Z,32.10
2023-04-22T18:06:05.183Z,21.50
2023-04-22T18:08:48.037Z,24.30
2023-04-22T18:11:31.039Z,33.50
2023-04-22T18:14:14.038Z,34.60
2023-04-22T18:16:57.095Z,37.90
2023-04-22T18:19:40.523Z,61.90
2023-04-22T18:22:25.142Z,68.30
2023-04-22T18:25:09.248Z,54.80
2023-04-22T18:27:55.095Z,48.90
2023-04-22T18:30:38.277Z,59.30
2023-04-22T18:33:21.164Z,40.20
2023-04-22T18:36:05.124Z,30.00
2023-04-22T18:38:48.430Z,26.30
2023-04-22T18:41:31.513Z,32.60
2023-04-22T18:44:14.784Z,29.70
2023-04-22T18:46:57.543Z,32.10
2023-04-22T18:49:40.417Z,39.50
2023-04-22T18:52:23.786Z,43.10
2023-04-22T18:55:07.214Z,33.50
2023-04-22T18:57:50.047Z,36.00
2023-04-22T19:00:33.069Z,34.50
2023-04-22T19:03:17.049Z,44.00
2023-04-22T19:06:00.359Z,28.80
2023-04-22T19:08:43.299Z,30.00
2023-04-22T19:11:26.297Z,40.60
2023-04-22T19:14:09.257Z,31.60
2023-04-22T19:16:52.142Z,34.30
2023-04-22T19:19:35.037Z,38.60
2023-04-22T19:22:18.804Z,42.30
2023-04-22T19:25:06.147Z,33.80
2023-04-22T19:27:49.122Z,44.70
2023-04-22T19:30:31.980Z,42.60
2023-04-22T19:33:15.576Z,39.10
2023-04-22T19:35:58.385Z,49.80
2023-04-22T19:38:41.584Z,59.90
2023-04-22T19:41:24.930Z,92.20
2023-04-22T19:44:07.722Z,87.10
2023-04-22T19:46:50.896Z,90.90
2023-04-22T19:49:34.490Z,92.00
2023-04-22T19:52:19.196Z,65.80
2023-04-22T19:55:09.845Z,69.40
2023-04-22T19:57:53.449Z,73.10
2023-04-22T20:00:37.454Z,88.20
2023-04-22T20:03:21.481Z,90.70
2023-04-22T20:06:05.377Z,95.70
2023-04-22T20:08:52.189Z,91.00
2023-04-22T20:11:35.804Z,85.90
2023-04-22T20:14:19.929Z,95.30
2023-04-22T20:17:03.078Z,90.50
2023-04-22T20:19:46.588Z,95.90
2023-04-22T20:22:29.718Z,92.20
2023-04-22T20:25:15.291Z,101.00
2023-04-22T20:27:58.732Z,101.30
2023-04-22T20:30:41.942Z,95.40
2023-04-22T20:33:25.043Z,99.10
2023-04-22T20:36:08.394Z,101.40
2023-04-22T20:38:54.946Z,100.00
2023-04-22T20:41:39.402Z,106.40
2023-04-22T20:44:22.536Z,100.90
2023-04-22T20:47:05.372Z,113.70
2023-04-22T20:49:48.289Z,119.40
2023-04-22T20:52:31.475Z,117.60
2023-04-22T20:55:14.283Z,118.80
2023-04-22T20:57:57.209Z,117.00
2023-04-22T21:00:40.587Z,115.90
2023-04-22T21:03:24.933Z,118.70
2023-04-22T21:06:09.128Z,108.80
2023-04-22T21:08:53.190Z,115.20
2023-04-22T21:11:36.414Z,103.50
2023-04-22T21:14:22.244Z,108.00
2023-04-22T21:17:15.362Z,100.60
2023-04-22T21:19:58.698Z,106.80
2023-04-22T21:22:43.725Z,105.10
2023-04-22T21:25:29.090Z,110.60
2023-04-22T21:28:12.248Z,112.20
2023-04-22T21:30:56.044Z,113.30
2023-04-22T21:33:39.414Z,125.10
2023-04-22T21:36:22.697Z,116.70
2023-04-22T21:39:08.384Z,129.60
2023-04-22T21:41:51.208Z,123.90
2023-04-22T21:44:37.043Z,119.20
2023-04-22T21:47:20.286Z,118.20
2023-04-22T21:50:03.237Z,116.60
2023-04-22T21:52:47.073Z,119.80
2023-04-22T21:55:30.088Z,118.80
2023-04-22T21:58:13.794Z,103.10
2023-04-22T22:00:56.732Z,103.00
2023-04-22T22:03:39.755Z,100.40
2023-04-22T22:06:22.846Z,94.90
2023-04-22T22:09:07.211Z,92.30
2023-04-22T22:11:49.961Z,94.40
2023-04-22T22:17:17.620Z,90.90
2023-04-22T22:20:01.103Z,88.60
2023-04-22T22:22:45.388Z,88.30
2023-04-22T22:25:28.474Z,78.80
2023-04-22T22:28:11.420Z,77.60
2023-04-22T22:30:59.672Z,78.40
2023-04-22T22:33:42.901Z,75.70
2023-04-22T22:36:25.781Z,73.60
2023-04-22T22:39:10.475Z,66.00
2023-04-22T22:41:55.597Z,66.90
2023-04-22T22:44:38.953Z,67.70
2023-04-22T22:47:24.960Z,60.40
2023-04-22T22:50:08.677Z,57.00
2023-04-22T22:52:51.552Z,60.70
2023-04-22T22:55:35.066Z,61.40
2023-04-22T22:58:17.876Z,56.70
2023-04-22T23:03:43.968Z,54.20
2023-04-22T23:06:27.357Z,52.30
2023-04-22T23:09:10.877Z,49.90
2023-04-22T23:11:55.445Z,49.00
2023-04-22T23:14:38.940Z,48.30
2023-04-22T23:17:22.551Z,55.10
2023-04-22T23:20:08.299Z,51.30
2023-04-22T23:22:52.024Z,50.60
2023-04-22T23:25:35.187Z,43.80
2023-04-22T23:28:18.516Z,43.20
2023-04-22T23:31:03.632Z,46.40
2023-04-22T23:33:50.218Z,43.10
2023-04-22T23:36:36.587Z,46.00
2023-04-22T23:39:19.718Z,39.30
2023-04-22T23:42:02.646Z,50.00
2023-04-22T23:44:46.402Z,49.50
2023-04-22T23:47:31.678Z,43.40
2023-04-22T23:50:16.008Z,43.30
2023-04-22T23:52:58.954Z,49.80
2023-04-22T23:55:42.271Z,39.80
2023-04-22T23:58:25.550Z,45.90
